sensor_id;sensor_type;location;lat;lon;timestamp;pressure;altitude;pressure_sealevel;temperature;humidity
19831;BME280;10076;52.008;4.708;2023-10-08T00:01:43;102330.22;;;20.48;100.00
19831;BME280;10076;52.008;4.708;2023-10-08T00:04:09;102342.03;;;20.45;100.00
19831;BME280;10076;52.008;4.708;2023-10-08T00:06:43;102327.59;;;20.37;100.00
19831;BME280;10076;52.008;4.708;2023-10-08T00:09:10;102339.63;;;20.42;100.00
19831;BME280;10076;52.008;4.708;2023-10-08T00:11:37;102344.41;;;20.39;100.00
19831;BME280;10076;52.008;4.708;2023-10-08T00:14:06;102330.94;;;20.29;100.00
19831;BME280;10076;52.008;4.708;2023-10-08T00:16:35;102331.59;;;20.42;100.00
19831;BME280;10076;52.008;4.708;2023-10-08T00:19:03;102343.69;;;20.27;100.00
19831;BME280;10076;52.008;4.708;2023-10-08T00:21:33;102343.13;;;20.33;100.00
19831;BME280;10076;52.008;4.708;2023-10-08T00:24:00;102339.41;;;20.25;100.00
19831;BME280;10076;52.008;4.708;2023-10-08T00:26:28;102327.56;;;20.27;100.00
19831;BME280;10076;52.008;4.708;2023-10-08T00:28:58;102316.69;;;20.29;100.00
19831;BME280;10076;52.008;4.708;2023-10-08T00:31:25;102308.06;;;20.25;100.00
19831;BME280;10076;52.008;4.708;2023-10-08T00:33:55;102312.63;;;20.34;100.00
19831;BME280;10076;52.008;4.708;2023-10-08T00:36:21;102315.44;;;20.33;100.00
19831;BME280;10076;52.008;4.708;2023-10-08T00:38:49;102307.63;;;20.20;100.00
19831;BME280;10076;52.008;4.708;2023-10-08T00:41:17;102307.63;;;20.20;100.00
19831;BME280;10076;52.008;4.708;2023-10-08T00:43:47;102306.22;;;20.26;100.00
19831;BME280;10076;52.008;4.708;2023-10-08T00:46:13;102297.53;;;20.33;100.00
19831;BME280;10076;52.008;4.708;2023-10-08T00:48:50;102294.84;;;20.33;100.00
19831;BME280;10076;52.008;4.708;2023-10-08T00:51:18;102286.66;;;20.35;100.00
19831;BME280;10076;52.008;4.708;2023-10-08T00:53:49;102285.09;;;20.32;100.00
19831;BME280;10076;52.008;4.708;2023-10-08T00:56:16;102283.25;;;20.33;100.00
19831;BME280;10076;52.008;4.708;2023-10-08T00:58:44;102297.41;;;20.44;100.00
19831;BME280;10076;52.008;4.708;2023-10-08T01:01:14;102309.06;;;20.64;100.00
19831;BME280;10076;52.008;4.708;2023-10-08T01:03:42;102303.56;;;20.65;100.00
19831;BME280;10076;52.008;4.708;2023-10-08T01:06:11;102315.97;;;20.57;100.00
19831;BME280;10076;52.008;4.708;2023-10-08T01:08:37;102315.81;;;20.58;100.00
19831;BME280;10076;52.008;4.708;2023-10-08T01:11:20;102323.19;;;20.66;100.00
19831;BME280;10076;52.008;4.708;2023-10-08T01:14:06;102323.75;;;20.69;100.00
19831;BME280;10076;52.008;4.708;2023-10-08T01:16:33;102322.75;;;20.61;100.00
19831;BME280;10076;52.008;4.708;2023-10-08T01:18:59;102317.38;;;20.61;100.00
19831;BME280;10076;52.008;4.708;2023-10-08T01:21:28;102316.94;;;20.56;100.00
19831;BME280;10076;52.008;4.708;2023-10-08T01:24:03;102335.59;;;20.48;100.00
19831;BME280;10076;52.008;4.708;2023-10-08T01:26:35;102312.00;;;20.61;100.00
19831;BME280;10076;52.008;4.708;2023-10-08T01:29:04;102318.47;;;20.49;100.00
19831;BME280;10076;52.008;4.708;2023-10-08T01:31:32;102316.06;;;20.46;100.00
19831;BME280;10076;52.008;4.708;2023-10-08T01:33:57;102316.81;;;20.57;100.00
19831;BME280;10076;52.008;4.708;2023-10-08T01:36:24;102318.53;;;20.68;100.00
19831;BME280;10076;52.008;4.708;2023-10-08T01:38:51;102325.75;;;20.67;100.00
19831;BME280;10076;52.008;4.708;2023-10-08T01:41:19;102323.47;;;20.63;100.00
19831;BME280;10076;52.008;4.708;2023-10-08T01:43:48;102316.81;;;20.57;100.00
19831;BME280;10076;52.008;4.708;2023-10-08T01:46:15;102322.16;;;20.57;100.00
19831;BME280;10076;52.008;4.708;2023-10-08T01:48:41;102331.97;;;20.68;100.00
19831;BME280;10076;52.008;4.708;2023-10-08T01:51:10;102327.53;;;20.57;100.00
19831;BME280;10076;52.008;4.708;2023-10-08T01:53:40;102335.19;;;20.62;100.00
19831;BME280;10076;52.008;4.708;2023-10-08T01:56:06;102350.03;;;20.66;100.00
19831;BME280;10076;52.008;4.708;2023-10-08T01:58:31;102347.50;;;20.64;100.00
19831;BME280;10076;52.008;4.708;2023-10-08T02:00:59;102361.09;;;20.72;100.00
19831;BME280;10076;52.008;4.708;2023-10-08T02:03:26;102375.59;;;20.60;100.00
19831;BME280;10076;52.008;4.708;2023-10-08T02:05:53;102371.75;;;20.53;100.00
19831;BME280;10076;52.008;4.708;2023-10-08T02:08:24;102362.53;;;20.46;100.00
19831;BME280;10076;52.008;4.708;2023-10-08T02:10:51;102369.91;;;20.54;100.00
19831;BME280;10076;52.008;4.708;2023-10-08T02:13:18;102360.00;;;20.45;100.00
19831;BME280;10076;52.008;4.708;2023-10-08T02:15:45;102353.34;;;20.49;100.00
19831;BME280;10076;52.008;4.708;2023-10-08T02:18:12;102358.72;;;20.49;100.00
19831;BME280;10076;52.008;4.708;2023-10-08T02:20:39;102345.72;;;20.44;100.00
19831;BME280;10076;52.008;4.708;2023-10-08T02:23:04;102353.91;;;20.43;100.00
19831;BME280;10076;52.008;4.708;2023-10-08T02:25:31;102353.34;;;20.49;100.00
19831;BME280;10076;52.008;4.708;2023-10-08T02:27:56;102344.91;;;20.53;100.00
19831;BME280;10076;52.008;4.708;2023-10-08T02:30:23;102335.00;;;20.44;100.00
19831;BME280;10076;52.008;4.708;2023-10-08T02:32:48;102336.13;;;20.51;100.00
19831;BME280;10076;52.008;4.708;2023-10-08T02:35:15;102343.75;;;20.46;100.00
19831;BME280;10076;52.008;4.708;2023-10-08T02:37:40;102332.47;;;20.52;100.00
19831;BME280;10076;52.008;4.708;2023-10-08T02:40:09;102358.63;;;20.50;100.00
19831;BME280;10076;52.008;4.708;2023-10-08T02:42:53;102359.16;;;20.54;100.00
19831;BME280;10076;52.008;4.708;2023-10-08T02:45:25;102363.16;;;20.59;100.00
19831;BME280;10076;52.008;4.708;2023-10-08T02:47:50;102362.19;;;20.60;100.00
19831;BME280;10076;52.008;4.708;2023-10-08T02:50:18;102365.13;;;20.57;100.00
19831;BME280;10076;52.008;4.708;2023-10-08T02:52:44;102357.06;;;20.57;100.00
19831;BME280;10076;52.008;4.708;2023-10-08T02:55:12;102353.16;;;20.61;100.00
19831;BME280;10076;52.008;4.708;2023-10-08T02:57:56;102355.69;;;20.63;100.00
19831;BME280;10076;52.008;4.708;2023-10-08T03:00:21;102355.97;;;20.69;100.00
19831;BME280;10076;52.008;4.708;2023-10-08T03:02:54;102357.97;;;20.67;100.00
19831;BME280;10076;52.008;4.708;2023-10-08T03:05:19;102364.56;;;20.63;100.00
19831;BME280;10076;52.008;4.708;2023-10-08T03:07:47;102374.09;;;20.67;100.00
19831;BME280;10076;52.008;4.708;2023-10-08T03:10:16;102366.56;;;20.61;100.00
19831;BME280;10076;52.008;4.708;2023-10-08T03:12:46;102364.56;;;20.63;100.00
19831;BME280;10076;52.008;4.708;2023-10-08T03:15:12;102351.44;;;20.60;100.00
19831;BME280;10076;52.008;4.708;2023-10-08T03:17:41;102347.34;;;20.66;100.00
19831;BME280;10076;52.008;4.708;2023-10-08T03:20:20;102343.09;;;20.63;100.00
19831;BME280;10076;52.008;4.708;2023-10-08T03:23:07;102354.56;;;20.65;100.00
19831;BME280;10076;52.008;4.708;2023-10-08T03:25:57;102353.97;;;20.62;100.00
19831;BME280;10076;52.008;4.708;2023-10-08T03:28:29;102360.78;;;20.66;100.00
19831;BME280;10076;52.008;4.708;2023-10-08T03:30:59;102362.03;;;20.62;100.00
19831;BME280;10076;52.008;4.708;2023-10-08T03:33:34;102363.75;;;20.63;100.00
19831;BME280;10076;52.008;4.708;2023-10-08T03:36:03;102373.81;;;20.70;100.00
19831;BME280;10076;52.008;4.708;2023-10-08T03:38:55;102385.81;;;20.66;100.00
19831;BME280;10076;52.008;4.708;2023-10-08T03:41:23;102393.41;;;20.61;100.00
19831;BME280;10076;52.008;4.708;2023-10-08T03:43:55;102408.75;;;20.50;100.00
19831;BME280;10076;52.008;4.708;2023-10-08T03:46:28;102396.06;;;20.52;100.00
19831;BME280;10076;52.008;4.708;2023-10-08T03:48:53;102399.72;;;20.51;100.00
19831;BME280;10076;52.008;4.708;2023-10-08T03:51:22;102397.34;;;20.57;100.00
19831;BME280;10076;52.008;4.708;2023-10-08T03:53:51;102396.72;;;20.44;100.00
19831;BME280;10076;52.008;4.708;2023-10-08T03:56:34;102410.41;;;20.41;100.00
19831;BME280;10076;52.008;4.708;2023-10-08T03:59:02;102409.81;;;20.38;100.00
19831;BME280;10076;52.008;4.708;2023-10-08T04:01:46;102404.88;;;20.33;100.00
19831;BME280;10076;52.008;4.708;2023-10-08T04:04:14;102413.75;;;20.34;100.00
19831;BME280;10076;52.008;4.708;2023-10-08T04:06:40;102426.06;;;20.36;100.00
19831;BME280;10076;52.008;4.708;2023-10-08T04:09:13;102433.56;;;20.42;100.00
19831;BME280;10076;52.008;4.708;2023-10-08T04:11:47;102449.38;;;20.36;100.00
19831;BME280;10076;52.008;4.708;2023-10-08T04:14:13;102447.06;;;20.31;100.00
19831;BME280;10076;52.008;4.708;2023-10-08T04:16:42;102448.19;;;20.29;100.00
19831;BME280;10076;52.008;4.708;2023-10-08T04:19:08;102433.91;;;20.28;100.00
19831;BME280;10076;52.008;4.708;2023-10-08T04:21:33;102423.91;;;20.30;100.00
19831;BME280;10076;52.008;4.708;2023-10-08T04:23:59;102432.31;;;20.26;100.00
19831;BME280;10076;52.008;4.708;2023-10-08T04:26:28;102438.50;;;20.37;100.00
19831;BME280;10076;52.008;4.708;2023-10-08T04:28:55;102445.34;;;20.30;100.00
19831;BME280;10076;52.008;4.708;2023-10-08T04:31:23;102443.94;;;20.26;100.00
19831;BME280;10076;52.008;4.708;2023-10-08T04:33:53;102446.84;;;20.23;100.00
19831;BME280;10076;52.008;4.708;2023-10-08T04:36:20;102456.91;;;20.21;100.00
19831;BME280;10076;52.008;4.708;2023-10-08T04:38:45;102445.66;;;20.16;100.00
19831;BME280;10076;52.008;4.708;2023-10-08T04:41:16;102425.66;;;20.20;100.00
19831;BME280;10076;52.008;4.708;2023-10-08T04:43:45;102438.22;;;20.20;100.00
19831;BME280;10076;52.008;4.708;2023-10-08T04:46:10;102448.34;;;20.16;100.00
19831;BME280;10076;52.008;4.708;2023-10-08T04:48:47;102457.41;;;20.15;100.00
19831;BME280;10076;52.008;4.708;2023-10-08T04:51:12;102439.31;;;20.17;100.00
19831;BME280;10076;52.008;4.708;2023-10-08T04:53:38;102442.16;;;20.16;100.00
19831;BME280;10076;52.008;4.708;2023-10-08T04:56:07;102438.44;;;20.28;100.00
19831;BME280;10076;52.008;4.708;2023-10-08T04:58:46;102448.25;;;20.38;100.00
19831;BME280;10076;52.008;4.708;2023-10-08T05:01:16;102451.09;;;20.26;100.00
19831;BME280;10076;52.008;4.708;2023-10-08T05:04:04;102440.78;;;20.21;100.00
19831;BME280;10076;52.008;4.708;2023-10-08T05:06:30;102436.00;;;20.25;100.00
19831;BME280;10076;52.008;4.708;2023-10-08T05:09:09;102453.47;;;20.19;100.00
19831;BME280;10076;52.008;4.708;2023-10-08T05:11:44;102451.31;;;20.13;100.00
19831;BME280;10076;52.008;4.708;2023-10-08T05:14:20;102454.00;;;20.13;100.00
19831;BME280;10076;52.008;4.708;2023-10-08T05:17:07;102456.75;;;20.03;100.00
19831;BME280;10076;52.008;4.708;2023-10-08T05:19:40;102452.38;;;19.91;100.00
19831;BME280;10076;52.008;4.708;2023-10-08T05:22:06;102452.88;;;19.96;100.00
19831;BME280;10076;52.008;4.708;2023-10-08T05:24:48;102458.84;;;19.88;100.00
19831;BME280;10076;52.008;4.708;2023-10-08T05:27:32;102466.06;;;19.77;100.00
19831;BME280;10076;52.008;4.708;2023-10-08T05:30:26;102464.44;;;19.85;100.00
19831;BME280;10076;52.008;4.708;2023-10-08T05:33:08;102473.63;;;19.72;100.00
19831;BME280;10076;52.008;4.708;2023-10-08T05:35:45;102475.06;;;19.76;100.00
19831;BME280;10076;52.008;4.708;2023-10-08T05:38:12;102450.78;;;19.57;100.00
19831;BME280;10076;52.008;4.708;2023-10-08T05:40:44;102463.69;;;19.63;100.00
19831;BME280;10076;52.008;4.708;2023-10-08T05:46:14;102447.41;;;19.44;100.00
19831;BME280;10076;52.008;4.708;2023-10-08T05:48:52;102450.31;;;19.52;100.00
19831;BME280;10076;52.008;4.708;2023-10-08T05:51:27;102456.06;;;19.47;100.00
19831;BME280;10076;52.008;4.708;2023-10-08T05:54:19;102466.66;;;19.38;100.00
19831;BME280;10076;52.008;4.708;2023-10-08T05:57:09;102469.09;;;19.41;100.00
19831;BME280;10076;52.008;4.708;2023-10-08T05:59:45;102467.38;;;19.51;100.00
19831;BME280;10076;52.008;4.708;2023-10-08T06:05:11;102471.75;;;19.41;100.00
19831;BME280;10076;52.008;4.708;2023-10-08T06:07:38;102480.56;;;19.32;100.00
19831;BME280;10076;52.008;4.708;2023-10-08T06:10:33;102485.75;;;19.44;100.00
19831;BME280;10076;52.008;4.708;2023-10-08T06:13:10;102486.41;;;19.37;100.00
19831;BME280;10076;52.008;4.708;2023-10-08T06:15:46;102501.00;;;19.44;100.00
19831;BME280;10076;52.008;4.708;2023-10-08T06:18:23;102503.09;;;19.30;100.00
19831;BME280;10076;52.008;4.708;2023-10-08T06:20:52;102515.53;;;19.20;100.00
19831;BME280;10076;52.008;4.708;2023-10-08T06:23:20;102514.44;;;19.22;100.00
19831;BME280;10076;52.008;4.708;2023-10-08T06:25:50;102517.84;;;19.35;100.00
19831;BME280;10076;52.008;4.708;2023-10-08T06:28:25;102524.03;;;19.36;100.00
19831;BME280;10076;52.008;4.708;2023-10-08T06:30:55;102530.13;;;19.27;100.00
19831;BME280;10076;52.008;4.708;2023-10-08T06:33:22;102536.81;;;19.32;100.00
19831;BME280;10076;52.008;4.708;2023-10-08T06:35:52;102545.31;;;19.48;100.00
19831;BME280;10076;52.008;4.708;2023-10-08T06:38:33;102539.28;;;19.35;100.00
19831;BME280;10076;52.008;4.708;2023-10-08T06:40:59;102527.69;;;19.24;100.00
19831;BME280;10076;52.008;4.708;2023-10-08T06:43:26;102523.19;;;19.13;100.00
19831;BME280;10076;52.008;4.708;2023-10-08T06:45:52;102520.91;;;19.09;100.00
19831;BME280;10076;52.008;4.708;2023-10-08T06:48:19;102520.75;;;19.10;100.00
19831;BME280;10076;52.008;4.708;2023-10-08T06:50:49;102529.63;;;19.11;100.00
19831;BME280;10076;52.008;4.708;2023-10-08T06:53:15;102538.59;;;18.99;100.00
19831;BME280;10076;52.008;4.708;2023-10-08T06:55:43;102544.72;;;19.01;100.00
19831;BME280;10076;52.008;4.708;2023-10-08T06:58:09;102551.28;;;18.86;100.00
19831;BME280;10076;52.008;4.708;2023-10-08T07:00:36;102544.44;;;18.93;100.00
19831;BME280;10076;52.008;4.708;2023-10-08T07:03:06;102541.53;;;19.07;100.00
19831;BME280;10076;52.008;4.708;2023-10-08T07:05:36;102546.53;;;19.00;100.00
19831;BME280;10076;52.008;4.708;2023-10-08T07:08:06;102552.88;;;18.99;100.00
19831;BME280;10076;52.008;4.708;2023-10-08T07:10:32;102564.06;;;18.93;100.00
19831;BME280;10076;52.008;4.708;2023-10-08T07:13:02;102560.41;;;18.94;100.00
19831;BME280;10076;52.008;4.708;2023-10-08T07:15:31;102566.97;;;19.01;100.00
19831;BME280;10076;52.008;4.708;2023-10-08T07:17:57;102564.59;;;19.09;100.00
19831;BME280;10076;52.008;4.708;2023-10-08T07:20:33;102566.50;;;19.07;100.00
19831;BME280;10076;52.008;4.708;2023-10-08T07:23:04;102565.78;;;19.05;100.00
19831;BME280;10076;52.008;4.708;2023-10-08T07:25:35;102576.56;;;18.93;100.00
19831;BME280;10076;52.008;4.708;2023-10-08T07:28:03;102582.53;;;18.85;100.00
19831;BME280;10076;52.008;4.708;2023-10-08T07:30:38;102579.47;;;18.68;100.00
19831;BME280;10076;52.008;4.708;2023-10-08T07:33:10;102582.63;;;18.73;100.00
19831;BME280;10076;52.008;4.708;2023-10-08T07:35:43;102585.84;;;18.55;100.00
19831;BME280;10076;52.008;4.708;2023-10-08T07:38:17;102594.97;;;18.63;100.00
19831;BME280;10076;52.008;4.708;2023-10-08T07:40:42;102601.59;;;18.36;100.00
19831;BME280;10076;52.008;4.708;2023-10-08T07:43:08;102587.47;;;18.57;100.00
19831;BME280;10076;52.008;4.708;2023-10-08T07:45:34;102590.47;;;18.53;100.00
19831;BME280;10076;52.008;4.708;2023-10-08T07:48:01;102603.31;;;18.37;100.00
19831;BME280;10076;52.008;4.708;2023-10-08T07:50:26;102609.38;;;18.39;100.00
19831;BME280;10076;52.008;4.708;2023-10-08T07:52:54;102603.81;;;18.42;100.00
19831;BME280;10076;52.008;4.708;2023-10-08T07:55:21;102607.50;;;18.28;100.00
19831;BME280;10076;52.008;4.708;2023-10-08T07:57:47;102608.41;;;18.40;100.00
19831;BME280;10076;52.008;4.708;2023-10-08T08:00:14;102612.72;;;18.53;100.00
19831;BME280;10076;52.008;4.708;2023-10-08T08:02:51;102617.91;;;18.44;100.00
19831;BME280;10076;52.008;4.708;2023-10-08T08:05:18;102628.56;;;18.56;100.00
19831;BME280;10076;52.008;4.708;2023-10-08T08:07:43;102616.53;;;18.62;100.00
19831;BME280;10076;52.008;4.708;2023-10-08T08:10:14;102615.28;;;18.55;100.00
19831;BME280;10076;52.008;4.708;2023-10-08T08:12:40;102627.41;;;18.82;100.00
19831;BME280;10076;52.008;4.708;2023-10-08T08:15:05;102630.72;;;18.85;100.00
19831;BME280;10076;52.008;4.708;2023-10-08T08:17:44;102628.78;;;18.87;100.00
19831;BME280;10076;52.008;4.708;2023-10-08T08:20:09;102635.41;;;18.71;100.00
19831;BME280;10076;52.008;4.708;2023-10-08T08:22:44;102628.16;;;18.84;100.00
19831;BME280;10076;52.008;4.708;2023-10-08T08:25:16;102632.66;;;18.83;100.00
19831;BME280;10076;52.008;4.708;2023-10-08T08:27:51;102635.72;;;18.90;100.00
19831;BME280;10076;52.008;4.708;2023-10-08T08:30:18;102652.91;;;18.98;100.00
19831;BME280;10076;52.008;4.708;2023-10-08T08:32:46;102655.47;;;19.00;100.00
19831;BME280;10076;52.008;4.708;2023-10-08T08:35:15;102660.66;;;18.90;100.00
19831;BME280;10076;52.008;4.708;2023-10-08T08:37:45;102663.47;;;18.89;100.00
19831;BME280;10076;52.008;4.708;2023-10-08T08:40:11;102660.66;;;18.90;100.00
19831;BME280;10076;52.008;4.708;2023-10-08T08:42:44;102659.72;;;19.02;100.00
19831;BME280;10076;52.008;4.708;2023-10-08T08:45:12;102663.09;;;18.82;100.00
19831;BME280;10076;52.008;4.708;2023-10-08T08:47:39;102658.00;;;19.01;100.00
19831;BME280;10076;52.008;4.708;2023-10-08T08:50:07;102664.78;;;19.18;100.00
19831;BME280;10076;52.008;4.708;2023-10-08T08:52:36;102660.06;;;19.32;100.00
19831;BME280;10076;52.008;4.708;2023-10-08T08:55:08;102657.16;;;19.35;100.00
19831;BME280;10076;52.008;4.708;2023-10-08T08:57:44;102666.81;;;19.48;100.00
19831;BME280;10076;52.008;4.708;2023-10-08T09:00:14;102659.84;;;19.35;100.00
19831;BME280;10076;52.008;4.708;2023-10-08T09:02:40;102656.44;;;19.44;100.00
19831;BME280;10076;52.008;4.708;2023-10-08T09:05:06;102655.69;;;19.31;100.00
19831;BME280;10076;52.008;4.708;2023-10-08T09:08:01;102650.72;;;19.38;100.00
19831;BME280;10076;52.008;4.708;2023-10-08T09:10:37;102647.66;;;19.53;100.00
19831;BME280;10076;52.008;4.708;2023-10-08T09:13:06;102646.81;;;19.63;100.00
19831;BME280;10076;52.008;4.708;2023-10-08T09:15:36;102650.56;;;19.83;100.00
19831;BME280;10076;52.008;4.708;2023-10-08T09:18:01;102656.56;;;19.75;100.00
19831;BME280;10076;52.008;4.708;2023-10-08T09:20:30;102658.41;;;19.64;100.00
19831;BME280;10076;52.008;4.708;2023-10-08T09:25:37;102654.22;;;19.38;100.00
19831;BME280;10076;52.008;4.708;2023-10-08T09:28:02;102645.97;;;19.63;100.00
19831;BME280;10076;52.008;4.708;2023-10-08T09:30:33;102646.56;;;19.77;100.00
19831;BME280;10076;52.008;4.708;2023-10-08T09:33:07;102640.59;;;19.74;100.00
19831;BME280;10076;52.008;4.708;2023-10-08T09:35:32;102634.00;;;19.89;100.00
19831;BME280;10076;52.008;4.708;2023-10-08T09:38:06;102642.78;;;20.02;100.00
19831;BME280;10076;52.008;4.708;2023-10-08T09:40:39;102649.75;;;19.93;100.00
19831;BME280;10076;52.008;4.708;2023-10-08T09:43:12;102650.47;;;20.06;100.00
19831;BME280;10076;52.008;4.708;2023-10-08T09:45:43;102668.38;;;20.06;100.00
19831;BME280;10076;52.008;4.708;2023-10-08T09:48:12;102667.41;;;20.07;100.00
19831;BME280;10076;52.008;4.708;2023-10-08T09:50:41;102653.25;;;20.05;100.00
19831;BME280;10076;52.008;4.708;2023-10-08T09:53:09;102647.53;;;20.09;100.00
19831;BME280;10076;52.008;4.708;2023-10-08T09:55:52;102634.25;;;20.08;100.00
19831;BME280;10076;52.008;4.708;2023-10-08T09:58:19;102636.56;;;20.12;100.00
19831;BME280;10076;52.008;4.708;2023-10-08T10:00:46;102640.97;;;20.44;100.00
19831;BME280;10076;52.008;4.708;2023-10-08T10:03:14;102650.41;;;20.59;100.00
19831;BME280;10076;52.008;4.708;2023-10-08T10:05:42;102643.16;;;20.82;100.00
19831;BME280;10076;52.008;4.708;2023-10-08T10:08:08;102640.84;;;20.77;100.00
19831;BME280;10076;52.008;4.708;2023-10-08T10:10:37;102636.53;;;20.85;100.00
19831;BME280;10076;52.008;4.708;2023-10-08T10:13:10;102643.63;;;20.86;100.00
19831;BME280;10076;52.008;4.708;2023-10-08T10:15:37;102653.50;;;20.86;100.00
19831;BME280;10076;52.008;4.708;2023-10-08T10:18:09;102651.84;;;20.63;100.00
19831;BME280;10076;52.008;4.708;2023-10-08T10:20:40;102661.25;;;20.69;100.00
19831;BME280;10076;52.008;4.708;2023-10-08T10:23:34;102661.34;;;20.47;100.00
19831;BME280;10076;52.008;4.708;2023-10-08T10:26:01;102670.00;;;20.39;100.00
19831;BME280;10076;52.008;4.708;2023-10-08T10:28:28;102680.06;;;20.26;100.00
19831;BME280;10076;52.008;4.708;2023-10-08T10:30:55;102677.09;;;20.29;100.00
19831;BME280;10076;52.008;4.708;2023-10-08T10:33:21;102668.31;;;20.38;100.00
19831;BME280;10076;52.008;4.708;2023-10-08T10:35:53;102671.16;;;20.15;100.00
19831;BME280;10076;52.008;4.708;2023-10-08T10:38:19;102678.88;;;20.09;100.00
19831;BME280;10076;52.008;4.708;2023-10-08T10:40:48;102680.31;;;20.13;100.00
19831;BME280;10076;52.008;4.708;2023-10-08T10:43:23;102678.41;;;20.04;100.00
19831;BME280;10076;52.008;4.708;2023-10-08T10:45:55;102673.03;;;20.04;100.00
19831;BME280;10076;52.008;4.708;2023-10-08T10:48:21;102668.81;;;20.32;100.00
19831;BME280;10076;52.008;4.708;2023-10-08T10:50:51;102672.19;;;20.45;100.00
19831;BME280;10076;52.008;4.708;2023-10-08T10:53:49;102669.16;;;20.70;100.00
19831;BME280;10076;52.008;4.708;2023-10-08T10:56:34;102656.38;;;20.63;100.00
19831;BME280;10076;52.008;4.708;2023-10-08T10:59:06;102660.06;;;20.93;100.00
19831;BME280;10076;52.008;4.708;2023-10-08T11:01:49;102652.50;;;20.87;100.00
19831;BME280;10076;52.008;4.708;2023-10-08T11:04:20;102654.00;;;21.21;100.00
19831;BME280;10076;52.008;4.708;2023-10-08T11:06:54;102652.91;;;21.23;100.00
19831;BME280;10076;52.008;4.708;2023-10-08T11:09:24;102647.41;;;21.25;100.00
19831;BME280;10076;52.008;4.708;2023-10-08T11:12:02;102647.97;;;21.49;100.00
19831;BME280;10076;52.008;4.708;2023-10-08T11:14:36;102642.66;;;21.58;100.00
19831;BME280;10076;52.008;4.708;2023-10-08T11:17:12;102638.50;;;21.84;100.00
19831;BME280;10076;52.008;4.708;2023-10-08T11:19:41;102644.06;;;22.01;100.00
19831;BME280;10076;52.008;4.708;2023-10-08T11:22:07;102644.47;;;22.36;100.00
19831;BME280;10076;52.008;4.708;2023-10-08T11:24:41;102644.50;;;22.83;100.00
19831;BME280;10076;52.008;4.708;2023-10-08T11:27:08;102647.19;;;22.83;100.00
19831;BME280;10076;52.008;4.708;2023-10-08T11:29:45;102645.00;;;23.24;100.00
19831;BME280;10076;52.008;4.708;2023-10-08T11:32:12;102644.25;;;23.41;100.00
19831;BME280;10076;52.008;4.708;2023-10-08T11:34:40;102645.19;;;23.59;100.00
19831;BME280;10076;52.008;4.708;2023-10-08T11:37:06;102642.25;;;23.53;100.00
19831;BME280;10076;52.008;4.708;2023-10-08T11:39:48;102639.91;;;23.67;100.00
19831;BME280;10076;52.008;4.708;2023-10-08T11:42:14;102638.81;;;23.51;100.00
19831;BME280;10076;52.008;4.708;2023-10-08T11:44:58;102641.47;;;23.33;100.00
19831;BME280;10076;52.008;4.708;2023-10-08T11:47:42;102642.09;;;23.54;100.00
19831;BME280;10076;52.008;4.708;2023-10-08T11:50:09;102637.59;;;23.81;100.00
19831;BME280;10076;52.008;4.708;2023-10-08T11:52:42;102642.59;;;23.76;100.00
19831;BME280;10076;52.008;4.708;2023-10-08T11:55:09;102643.94;;;23.90;100.00
19831;BME280;10076;52.008;4.708;2023-10-08T11:57:35;102638.03;;;24.04;100.00
19831;BME280;10076;52.008;4.708;2023-10-08T12:00:04;102627.81;;;23.35;100.00
19831;BME280;10076;52.008;4.708;2023-10-08T12:02:45;102624.81;;;23.38;100.00
19831;BME280;10076;52.008;4.708;2023-10-08T12:05:10;102615.56;;;23.40;100.00
19831;BME280;10076;52.008;4.708;2023-10-08T12:07:47;102623.16;;;23.64;100.00
19831;BME280;10076;52.008;4.708;2023-10-08T12:10:19;102613.34;;;23.72;100.00
19831;BME280;10076;52.008;4.708;2023-10-08T12:12:52;102611.94;;;23.95;100.00
19831;BME280;10076;52.008;4.708;2023-10-08T12:15:21;102607.22;;;24.24;100.00
19831;BME280;10076;52.008;4.708;2023-10-08T12:17:50;102604.34;;;24.25;100.00
19831;BME280;10076;52.008;4.708;2023-10-08T12:20:42;102589.34;;;23.96;100.00
19831;BME280;10076;52.008;4.708;2023-10-08T12:23:09;102590.34;;;23.68;100.00
19831;BME280;10076;52.008;4.708;2023-10-08T12:25:52;102585.63;;;23.70;100.00
19831;BME280;10076;52.008;4.708;2023-10-08T12:28:23;102581.69;;;23.28;100.00
19831;BME280;10076;52.008;4.708;2023-10-08T12:30:50;102573.69;;;23.46;100.00
19831;BME280;10076;52.008;4.708;2023-10-08T12:33:21;102564.84;;;23.53;100.00
19831;BME280;10076;52.008;4.708;2023-10-08T12:35:48;102571.16;;;23.71;100.00
19831;BME280;10076;52.008;4.708;2023-10-08T12:38:13;102570.41;;;23.78;100.00
19831;BME280;10076;52.008;4.708;2023-10-08T12:40:40;102560.22;;;23.99;100.00
19831;BME280;10076;52.008;4.708;2023-10-08T12:43:24;102558.13;;;23.93;100.00
19831;BME280;10076;52.008;4.708;2023-10-08T12:45:54;102563.38;;;23.95;100.00
19831;BME280;10076;52.008;4.708;2023-10-08T12:48:27;102566.81;;;23.87;100.00
19831;BME280;10076;52.008;4.708;2023-10-08T12:50:53;102561.03;;;23.46;100.00
19831;BME280;10076;52.008;4.708;2023-10-08T12:53:22;102552.81;;;23.11;100.00
19831;BME280;10076;52.008;4.708;2023-10-08T12:56:08;102542.50;;;22.97;100.00
19831;BME280;10076;52.008;4.708;2023-10-08T12:58:41;102539.34;;;23.11;100.00
19831;BME280;10076;52.008;4.708;2023-10-08T13:01:09;102538.75;;;23.17;100.00
19831;BME280;10076;52.008;4.708;2023-10-08T13:03:36;102530.03;;;23.33;100.00
19831;BME280;10076;52.008;4.708;2023-10-08T13:06:07;102532.16;;;23.02;100.00
19831;BME280;10076;52.008;4.708;2023-10-08T13:08:36;102528.28;;;23.14;100.00